Terminal Aerodrome Forecast
Issued by NWS Wilmington, OH

Current Version | Previous Version | Graphics & Text | Print | Product List | Glossary On
Versions: 1 2 3 4 5 6 7 8 9 10 11 12 13 14 15 16 17 18
073
FTUS41 KILN 172204 AAB
TAFCMH
TAF AMD
KCMH 172204Z 1722/1818 20008KT P6SM SCT040 OVC100
      TEMPO 1722/1723 5SM -RA BKN050 OVC100
     FM180200 20007KT P6SM SCT010 SCT120
     FM180800 22007KT 4SM BR SCT008
     FM181300 26010KT P6SM BKN020
     FM181700 27012G20KT P6SM BKN040=

USA.gov is the U.S. government's official web portal to all federal, state and local government web resources and services.